Terminal Aerodrome Forecast
Issued by NWS Hastings, NE

Home | Current Version | Previous Version | Text Only | Print | Product List | Glossary On
Versions: 1 2 3 4 5 6 7 8 9 10 11 12 13 14 15 16 17 18 19 20 21 22 23 24 25 26
000
FTUS43 KGID 162320
TAFGRI
TAF
KGRI 162320Z 1700/1724 03008KT P6SM SCT250
     FM170900 02009KT P6SM BKN010
     FM171700 36010KT P6SM FEW020 BKN035
     FM172300 VRB06KT P6SM BKN120=

USA.gov is the U.S. government's official web portal to all federal, state and local government web resources and services.